Time;durP1;ratioP1;P1;durP2;ratioP2;P2;SDS_P1;SDS_P2;PMS_P1;PMS_P2;Temp;Humidity;BMP_temperature;BMP_pressure;BME280_temperature;BME280_humidity;BME280_pressure;Samples;Min_cycle;Max_cycle;Signal;HPM_P1;HPM_P2
2022/08/18 00:00:43;;;;;;;18.30;5.78;;;18.20;99.90;;;;;;5021415;28;20056;-69
2022/08/18 00:03:10;;;;;;;17.25;5.65;;;18.20;99.90;;;;;;4989833;28;20103;-70
2022/08/18 00:05:36;;;;;;;14.80;5.32;;;18.20;99.90;;;;;;5005561;28;20144;-69
2022/08/18 00:08:04;;;;;;;22.13;6.22;;;18.20;99.90;;;;;;4991035;28;20489;-70
2022/08/18 00:10:30;;;;;;;13.82;5.28;;;18.20;99.90;;;;;;5021753;28;20041;-70
2022/08/18 00:12:55;;;;;;;19.73;5.97;;;18.20;99.90;;;;;;5022423;28;20124;-70
2022/08/18 00:15:21;;;;;;;18.13;5.90;;;18.20;99.90;;;;;;5001684;28;20053;-70
2022/08/18 00:17:47;;;;;;;11.50;5.53;;;18.20;99.90;;;;;;5006060;28;20056;-70
2022/08/18 00:20:20;;;;;;;15.27;5.95;;;18.20;99.90;;;;;;5002716;28;20054;-70
2022/08/18 00:22:47;;;;;;;12.35;5.22;;;18.20;99.90;;;;;;5021348;28;20049;-70
2022/08/18 00:25:14;;;;;;;15.68;5.55;;;18.20;99.90;;;;;;5018568;28;20148;-70
2022/08/18 00:27:40;;;;;;;18.05;5.00;;;18.20;99.90;;;;;;4991191;28;20053;-70
2022/08/18 00:30:12;;;;;;;18.20;5.65;;;18.20;99.90;;;;;;5002308;28;20042;-69
2022/08/18 00:32:41;;;;;;;15.95;5.20;;;18.20;99.90;;;;;;5022489;28;20049;-70
2022/08/18 00:35:12;;;;;;;16.80;5.55;;;18.10;99.90;;;;;;5020175;28;20058;-70
2022/08/18 00:37:41;;;;;;;11.93;5.57;;;18.10;99.90;;;;;;5008538;28;20059;-69
2022/08/18 00:40:15;;;;;;;16.67;5.45;;;18.10;99.90;;;;;;5022476;28;20057;-70
2022/08/18 00:42:51;;;;;;;18.75;5.50;;;18.10;99.90;;;;;;5008408;28;20045;-70
2022/08/18 00:45:27;;;;;;;16.90;4.93;;;18.10;99.90;;;;;;5024846;28;20048;-70
2022/08/18 00:47:53;;;;;;;11.80;5.20;;;18.10;99.90;;;;;;5005150;28;20128;-70
2022/08/18 00:50:25;;;;;;;12.13;5.68;;;18.10;99.90;;;;;;5022603;28;20512;-70
2022/08/18 00:52:59;;;;;;;18.20;5.28;;;18.10;99.90;;;;;;5021930;28;20065;-70
2022/08/18 00:55:28;;;;;;;14.82;5.47;;;18.10;99.90;;;;;;5023059;28;20108;-70
2022/08/18 00:58:03;;;;;;;15.15;5.65;;;18.00;99.90;;;;;;4989251;28;20080;-70
2022/08/18 01:00:29;;;;;;;12.98;5.18;;;18.00;99.90;;;;;;5003120;28;20707;-70
2022/08/18 01:02:58;;;;;;;14.85;5.63;;;18.00;99.90;;;;;;4992021;28;20037;-70
2022/08/18 01:05:47;;;;;;;17.42;4.93;;;18.00;99.90;;;;;;5008295;28;20568;-70
2022/08/18 01:08:15;;;;;;;16.10;5.10;;;17.90;99.90;;;;;;5005387;28;20093;-70
2022/08/18 01:10:42;;;;;;;13.23;5.13;;;17.90;99.90;;;;;;5023359;28;20048;-70
2022/08/18 01:13:08;;;;;;;18.02;5.65;;;18.00;99.90;;;;;;5015695;28;20108;-69
2022/08/18 01:15:35;;;;;;;15.77;5.78;;;17.90;99.90;;;;;;5022045;28;20065;-70
2022/08/18 01:24:07;;;;;;;20.70;6.53;;;17.90;99.90;;;;;;5016299;28;20660;-70
2022/08/18 01:26:36;;;;;;;15.20;5.60;;;17.90;99.90;;;;;;4989318;28;20051;-71
2022/08/18 01:29:10;;;;;;;16.70;5.72;;;17.90;99.90;;;;;;5019064;28;20659;-70
2022/08/18 01:31:45;;;;;;;16.58;5.97;;;17.90;99.90;;;;;;5017880;28;20037;-70
2022/08/18 01:34:12;;;;;;;22.25;6.15;;;18.00;99.90;;;;;;5021189;28;20500;-70
2022/08/18 01:36:40;;;;;;;16.15;5.78;;;18.00;99.90;;;;;;4991373;28;20079;-70
2022/08/18 01:39:08;;;;;;;15.10;5.55;;;17.90;99.90;;;;;;5005581;28;20053;-70
2022/08/18 01:41:33;;;;;;;18.67;6.28;;;18.00;99.90;;;;;;5007993;28;20041;-70
2022/08/18 01:44:00;;;;;;;14.52;5.88;;;18.00;99.90;;;;;;5016495;28;20037;-70
2022/08/18 01:46:29;;;;;;;14.40;6.43;;;18.00;99.90;;;;;;4981362;28;20046;-70
2022/08/18 01:48:55;;;;;;;21.88;6.50;;;18.00;99.90;;;;;;5026885;28;20046;-70
2022/08/18 01:51:21;;;;;;;12.68;6.88;;;18.00;99.90;;;;;;5013284;28;20056;-70
2022/08/18 01:53:47;;;;;;;22.63;6.40;;;18.00;99.90;;;;;;5010804;28;20041;-70
2022/08/18 01:56:16;;;;;;;17.25;6.95;;;18.00;99.90;;;;;;4985882;28;20050;-71
2022/08/18 01:58:43;;;;;;;18.58;6.97;;;18.00;99.90;;;;;;5005830;28;20054;-70
2022/08/18 02:01:11;;;;;;;17.27;7.20;;;18.00;99.90;;;;;;5010819;28;20115;-70
2022/08/18 02:03:41;;;;;;;16.00;6.95;;;18.10;99.90;;;;;;4993025;28;20054;-70
2022/08/18 02:06:13;;;;;;;17.33;7.35;;;18.10;99.90;;;;;;5007255;28;20047;-72
2022/08/18 02:08:39;;;;;;;19.98;8.40;;;18.10;99.90;;;;;;5004302;28;20041;-69
2022/08/18 02:11:06;;;;;;;23.42;8.05;;;18.10;99.90;;;;;;4999474;28;20130;-70
2022/08/18 02:13:33;;;;;;;17.85;7.57;;;18.10;99.90;;;;;;5015049;28;20042;-70
2022/08/18 02:15:59;;;;;;;19.73;6.97;;;18.10;99.90;;;;;;5015964;28;20129;-70
2022/08/18 02:18:28;;;;;;;18.40;7.50;;;18.10;99.90;;;;;;4976539;28;20561;-70
2022/08/18 02:20:55;;;;;;;23.00;8.35;;;18.10;99.90;;;;;;5011050;28;20058;-70
2022/08/18 02:23:21;;;;;;;22.05;7.85;;;18.10;99.90;;;;;;5008126;28;20076;-70
2022/08/18 02:25:47;;;;;;;18.48;7.55;;;18.10;99.90;;;;;;5021038;28;20073;-70
2022/08/18 02:28:14;;;;;;;19.60;6.97;;;18.10;99.90;;;;;;4992811;28;20546;-70
2022/08/18 02:30:40;;;;;;;18.10;6.85;;;18.10;99.90;;;;;;5012821;28;20084;-70
2022/08/18 02:33:09;;;;;;;17.27;7.15;;;18.10;99.90;;;;;;5011838;28;20049;-69
2022/08/18 02:35:36;;;;;;;16.00;7.10;;;18.20;99.90;;;;;;4996208;28;20088;-70
2022/08/18 02:38:04;;;;;;;19.52;7.63;;;18.20;99.90;;;;;;5014637;28;20053;-70
2022/08/18 02:40:32;;;;;;;17.58;7.70;;;18.20;99.90;;;;;;5012174;28;20515;-70
2022/08/18 02:42:58;;;;;;;18.65;7.72;;;18.20;99.90;;;;;;5006927;28;20740;-71
2022/08/18 02:45:24;;;;;;;14.88;7.05;;;18.20;99.90;;;;;;5001418;28;20641;-70
2022/08/18 02:47:55;;;;;;;18.67;7.60;;;18.20;99.90;;;;;;4996100;28;20401;-70
2022/08/18 02:50:21;;;;;;;17.25;7.18;;;18.20;99.90;;;;;;5012367;28;20785;-70
2022/08/18 02:52:48;;;;;;;14.27;7.30;;;18.20;99.90;;;;;;5009722;28;20049;-70
2022/08/18 02:55:14;;;;;;;14.68;7.13;;;18.10;99.90;;;;;;5002812;28;20415;-70
2022/08/18 02:57:45;;;;;;;17.33;7.18;;;18.20;99.90;;;;;;4976411;28;20520;-70
2022/08/18 03:00:14;;;;;;;19.30;7.57;;;18.20;99.90;;;;;;4992698;28;20104;-71
2022/08/18 03:02:44;;;;;;;14.88;6.88;;;18.20;99.90;;;;;;5009359;28;20045;-70
2022/08/18 03:05:10;;;;;;;21.05;7.47;;;18.20;99.90;;;;;;5004772;28;20048;-70
2022/08/18 03:07:35;;;;;;;16.52;6.93;;;18.20;99.90;;;;;;4963501;28;20412;-70
2022/08/18 03:10:01;;;;;;;17.92;8.38;;;18.20;99.90;;;;;;5030071;28;20423;-70
2022/08/18 03:12:26;;;;;;;16.33;7.72;;;18.20;99.90;;;;;;5002117;28;20042;-70
2022/08/18 03:14:52;;;;;;;12.90;6.90;;;18.20;99.90;;;;;;5014656;28;20045;-70
2022/08/18 03:17:18;;;;;;;14.48;6.72;;;18.20;99.90;;;;;;4994477;28;20525;-70
2022/08/18 03:19:44;;;;;;;10.63;6.32;;;18.10;99.90;;;;;;5010028;28;20069;-70
2022/08/18 03:22:10;;;;;;;13.30;6.70;;;18.20;99.90;;;;;;4981600;28;20508;-69
2022/08/18 03:24:35;;;;;;;12.02;6.82;;;18.20;99.90;;;;;;5012133;28;20045;-69
2022/08/18 03:27:05;;;;;;;13.38;7.38;;;18.20;99.90;;;;;;5001422;28;20442;-70
2022/08/18 03:29:32;;;;;;;16.00;7.80;;;18.20;99.90;;;;;;5007825;28;20038;-71
2022/08/18 03:31:58;;;;;;;14.32;7.50;;;18.20;99.90;;;;;;5008812;28;20057;-70
2022/08/18 03:34:23;;;;;;;15.82;7.68;;;18.20;99.90;;;;;;5007820;28;20135;-70
2022/08/18 03:36:50;;;;;;;12.95;7.25;;;18.20;99.90;;;;;;4994456;28;20870;-71
2022/08/18 03:39:17;;;;;;;14.60;7.85;;;18.10;99.90;;;;;;5026981;28;20143;-70
2022/08/18 03:41:44;;;;;;;12.95;7.22;;;18.10;99.90;;;;;;5017601;28;20488;-70
2022/08/18 03:44:13;;;;;;;10.77;6.88;;;18.20;99.90;;;;;;5013895;28;20050;-71
2022/08/18 03:46:43;;;;;;;11.57;6.63;;;18.10;99.90;;;;;;5014752;28;20418;-70
2022/08/18 03:49:09;;;;;;;17.10;7.60;;;18.10;99.90;;;;;;5010209;28;20183;-71
2022/08/18 03:51:35;;;;;;;13.93;7.70;;;18.10;99.90;;;;;;5029654;28;20114;-71
2022/08/18 03:54:04;;;;;;;13.70;7.35;;;18.10;99.90;;;;;;4980121;28;20053;-71
2022/08/18 03:56:33;;;;;;;14.88;7.40;;;18.10;99.90;;;;;;5000421;28;20045;-71
2022/08/18 03:59:09;;;;;;;16.25;7.75;;;18.20;99.90;;;;;;4976913;28;20045;-71
2022/08/18 04:01:40;;;;;;;15.10;7.85;;;18.10;99.90;;;;;;4997673;28;20129;-70
2022/08/18 04:04:09;;;;;;;13.65;7.95;;;18.10;99.90;;;;;;5010769;28;21447;-70
2022/08/18 04:06:52;;;;;;;14.40;9.05;;;18.10;99.90;;;;;;4991027;28;20496;-70
2022/08/18 04:09:18;;;;;;;14.85;8.40;;;18.10;99.90;;;;;;5001166;28;20037;-70
2022/08/18 04:11:45;;;;;;;19.95;9.13;;;18.10;99.90;;;;;;5010575;28;20120;-70
2022/08/18 04:14:12;;;;;;;16.13;8.82;;;18.10;99.90;;;;;;5008223;28;20076;-70
2022/08/18 04:16:39;;;;;;;16.30;8.50;;;18.10;99.90;;;;;;4987707;28;20669;-70
2022/08/18 04:19:05;;;;;;;14.95;9.02;;;18.10;99.90;;;;;;5010408;28;20050;-70
2022/08/18 04:21:35;;;;;;;15.63;9.00;;;18.10;99.90;;;;;;5007881;28;20052;-70
2022/08/18 04:24:03;;;;;;;14.25;9.05;;;18.10;99.90;;;;;;5032245;28;20467;-70
2022/08/18 04:26:31;;;;;;;13.00;9.73;;;18.10;99.90;;;;;;4988011;28;20139;-70
2022/08/18 04:28:59;;;;;;;17.25;9.73;;;18.10;99.90;;;;;;5010267;28;20057;-70
2022/08/18 04:31:26;;;;;;;15.10;8.88;;;18.10;99.90;;;;;;4996562;28;20053;-70
2022/08/18 04:37:32;;;;;;;15.43;8.85;;;18.10;99.90;;;;;;5009508;28;20052;-70
2022/08/18 04:39:58;;;;;;;14.68;7.93;;;18.10;99.90;;;;;;5023771;28;20421;-70
2022/08/18 04:42:24;;;;;;;10.25;8.27;;;18.20;99.90;;;;;;5015105;28;20057;-71
2022/08/18 04:44:50;;;;;;;17.63;8.60;;;18.20;99.90;;;;;;4999261;28;20049;-71
2022/08/18 04:47:16;;;;;;;10.77;7.68;;;18.20;99.90;;;;;;5016723;28;20045;-70
2022/08/18 04:49:43;;;;;;;15.13;7.53;;;18.20;99.90;;;;;;5014018;28;20626;-70
2022/08/18 04:54:54;;;;;;;15.10;7.70;;;18.30;99.90;;;;;;5007236;28;20409;-70
2022/08/18 04:57:21;;;;;;;14.63;7.80;;;18.20;99.90;;;;;;5000882;28;20125;-70
2022/08/18 04:59:49;;;;;;;13.02;7.70;;;18.20;99.90;;;;;;5013359;28;20053;-70
2022/08/18 05:02:17;;;;;;;13.85;7.75;;;18.30;99.90;;;;;;4995158;28;20045;-70
2022/08/18 05:04:45;;;;;;;12.45;7.57;;;18.30;99.90;;;;;;4998628;28;20045;-70
2022/08/18 05:07:13;;;;;;;11.98;7.43;;;18.30;99.90;;;;;;4993518;28;20049;-70
2022/08/18 05:09:40;;;;;;;11.95;7.63;;;18.30;99.90;;;;;;5031919;28;20045;-70
2022/08/18 05:12:08;;;;;;;10.52;6.82;;;18.30;99.90;;;;;;5029280;28;20081;-70
2022/08/18 05:14:34;;;;;;;10.98;7.35;;;18.30;99.90;;;;;;5023493;28;20054;-71
2022/08/18 05:17:02;;;;;;;11.52;7.32;;;18.30;99.90;;;;;;4982043;28;20103;-71
2022/08/18 05:19:29;;;;;;;16.73;7.60;;;18.30;99.90;;;;;;5010561;28;20421;-70
2022/08/18 05:21:58;;;;;;;12.27;7.32;;;18.30;99.90;;;;;;4993796;28;20108;-71
2022/08/18 05:24:26;;;;;;;13.35;7.32;;;18.30;99.90;;;;;;4992966;28;20050;-70
2022/08/18 05:26:54;;;;;;;12.07;7.60;;;18.30;99.90;;;;;;5014766;28;20124;-71
2022/08/18 05:29:20;;;;;;;14.65;7.90;;;18.40;99.90;;;;;;5030433;28;20045;-71
2022/08/18 05:31:51;;;;;;;13.80;6.88;;;18.50;99.90;;;;;;5031531;28;20133;-70
2022/08/18 05:34:20;;;;;;;14.95;7.28;;;18.50;99.90;;;;;;5013956;28;20045;-71
2022/08/18 05:36:57;;;;;;;14.32;6.13;;;18.50;99.90;;;;;;4989183;28;20056;-71
2022/08/18 05:39:34;;;;;;;13.43;6.70;;;18.50;99.90;;;;;;5009536;28;20128;-71
2022/08/18 05:42:12;;;;;;;15.50;7.20;;;18.40;99.90;;;;;;5018170;28;20077;-69
2022/08/18 05:44:43;;;;;;;16.98;7.18;;;18.50;99.90;;;;;;5015468;28;20548;-68
2022/08/18 05:47:24;;;;;;;12.98;7.10;;;18.50;99.90;;;;;;5008040;28;20088;-68
2022/08/18 05:49:52;;;;;;;11.48;6.28;;;18.50;99.90;;;;;;5005371;28;20041;-69
2022/08/18 05:52:26;;;;;;;15.07;6.40;;;18.40;99.90;;;;;;4998735;28;20052;-69
2022/08/18 05:58:17;;;;;;;17.23;6.57;;;18.50;99.90;;;;;;5002648;28;20046;-68
2022/08/18 06:00:52;;;;;;;13.90;6.70;;;18.50;99.90;;;;;;4900897;29;20048;-68
2022/08/18 06:03:28;;;;;;;17.48;6.70;;;18.40;99.90;;;;;;5005580;28;20529;-68
2022/08/18 06:06:04;;;;;;;16.00;6.82;;;18.50;99.90;;;;;;4993629;28;20050;-69
2022/08/18 06:08:42;;;;;;;13.77;6.72;;;18.50;99.90;;;;;;4989774;28;20041;-69
2022/08/18 06:11:08;;;;;;;18.92;6.68;;;18.50;99.90;;;;;;5025852;28;20084;-69
2022/08/18 06:13:41;;;;;;;15.82;6.15;;;18.50;99.90;;;;;;4997836;28;20068;-69
2022/08/18 06:16:09;;;;;;;16.30;6.30;;;18.50;99.90;;;;;;5013071;28;20093;-70
2022/08/18 06:18:41;;;;;;;14.73;5.93;;;18.50;99.90;;;;;;5017465;28;20467;-69
2022/08/18 06:21:10;;;;;;;16.70;5.43;;;18.60;99.90;;;;;;5002679;28;20061;-69
2022/08/18 06:24:03;;;;;;;13.73;5.18;;;18.50;99.90;;;;;;4992055;28;20067;-69
2022/08/18 06:26:55;;;;;;;12.65;4.07;;;18.50;99.90;;;;;;5000155;28;21024;-69
2022/08/18 06:29:36;;;;;;;;;;;18.50;99.90;;;;;;5009033;28;20038;-68
2022/08/18 06:32:40;;;;;;;4.97;2.20;;;18.50;99.90;;;;;;5012418;28;19921;-69
2022/08/18 06:35:37;;;;;;;4.13;2.13;;;18.40;99.90;;;;;;4964466;28;20056;-69
2022/08/18 06:38:39;;;;;;;3.65;1.40;;;18.30;99.90;;;;;;4994773;28;20054;-68
2022/08/18 06:41:08;;;;;;;4.13;1.70;;;18.30;99.90;;;;;;4999499;28;20044;-69
2022/08/18 06:43:36;;;;;;;4.68;1.92;;;18.30;99.90;;;;;;5001192;28;20064;-69
2022/08/18 06:46:10;;;;;;;6.32;2.00;;;18.20;99.90;;;;;;5010813;28;20049;-69
2022/08/18 06:48:58;;;;;;;7.10;2.08;;;18.20;99.90;;;;;;5005016;28;20045;-69
2022/08/18 06:51:26;;;;;;;6.85;2.45;;;18.20;99.90;;;;;;5006573;28;20058;-69
2022/08/18 06:54:18;;;;;;;10.60;2.50;;;18.20;99.90;;;;;;4999318;28;20321;-68
2022/08/18 06:56:49;;;;;;;11.57;3.22;;;18.20;99.90;;;;;;4986721;28;20634;-70
2022/08/18 06:59:28;;;;;;;10.70;3.40;;;18.20;99.90;;;;;;4999860;28;20045;-70
2022/08/18 07:02:22;;;;;;;15.23;3.40;;;18.10;99.90;;;;;;5004279;28;20053;-69
2022/08/18 07:05:05;;;;;;;8.32;3.22;;;18.20;99.90;;;;;;5001277;28;20045;-70
2022/08/18 07:07:39;;;;;;;9.35;3.15;;;18.10;99.90;;;;;;4989799;28;20098;-70
2022/08/18 07:10:33;;;;;;;9.50;3.05;;;18.10;99.90;;;;;;5009125;28;20057;-71
2022/08/18 07:13:27;;;;;;;10.40;2.88;;;18.20;99.90;;;;;;4998320;28;21271;-70
2022/08/18 07:16:14;;;;;;;3.85;2.28;;;18.20;99.90;;;;;;5007609;28;20057;-70
2022/08/18 07:18:39;;;;;;;5.93;2.30;;;18.30;99.90;;;;;;5004750;28;20064;-70
2022/08/18 07:21:05;;;;;;;5.43;2.22;;;18.40;99.90;;;;;;5009638;28;20045;-70
2022/08/18 07:23:33;;;;;;;5.18;2.15;;;18.40;99.90;;;;;;4990144;28;20079;-70
2022/08/18 07:26:19;;;;;;;6.45;2.00;;;18.50;99.90;;;;;;5011894;28;20045;-70
2022/08/18 07:28:48;;;;;;;8.20;2.28;;;18.60;99.90;;;;;;5006070;28;20764;-71
2022/08/18 07:31:42;;;;;;;6.32;2.15;;;18.70;99.90;;;;;;5013825;28;20049;-70
2022/08/18 07:34:08;;;;;;;4.03;2.00;;;18.70;99.90;;;;;;4996399;28;20083;-70
2022/08/18 07:37:00;;;;;;;8.20;1.90;;;18.80;99.90;;;;;;4999546;28;20164;-71
2022/08/18 07:39:36;;;;;;;3.25;1.85;;;18.90;99.90;;;;;;5013151;28;20053;-70
2022/08/18 07:42:22;;;;;;;6.10;1.70;;;18.80;99.90;;;;;;5011969;28;20073;-71
2022/08/18 07:44:59;;;;;;;4.85;1.27;;;18.90;99.90;;;;;;5012561;28;20182;-70
2022/08/18 07:47:35;;;;;;;7.30;1.90;;;18.90;99.90;;;;;;4999094;28;20057;-70
2022/08/18 07:50:03;;;;;;;7.57;1.50;;;18.90;99.90;;;;;;5012819;28;20049;-71
2022/08/18 07:52:35;;;;;;;3.83;1.23;;;18.70;99.90;;;;;;5015775;28;20048;-70
2022/08/18 07:55:19;;;;;;;3.90;1.42;;;18.80;99.90;;;;;;5015260;28;20041;-71
2022/08/18 07:57:58;;;;;;;6.97;1.90;;;18.80;99.90;;;;;;4991085;28;20592;-70
2022/08/18 08:00:32;;;;;;;5.30;1.73;;;18.80;99.90;;;;;;4978921;28;20061;-70
2022/08/18 08:03:26;;;;;;;7.30;2.10;;;18.80;99.90;;;;;;4993073;28;20054;-71
2022/08/18 08:06:08;;;;;;;8.93;2.00;;;18.80;99.90;;;;;;4993253;28;20057;-71
2022/08/18 08:08:53;;;;;;;5.75;1.80;;;18.70;99.90;;;;;;4985763;28;20053;-71
2022/08/18 08:11:27;;;;;;;5.78;1.83;;;18.80;99.90;;;;;;4991100;28;20106;-71
2022/08/18 08:13:59;;;;;;;5.70;1.90;;;18.80;99.90;;;;;;4993603;28;20137;-71
2022/08/18 08:16:50;;;;;;;3.90;1.50;;;18.80;99.90;;;;;;4959940;28;20123;-71
2022/08/18 08:19:40;;;;;;;2.15;1.60;;;18.80;99.90;;;;;;4989070;28;20135;-71
2022/08/18 08:22:15;;;;;;;5.28;1.40;;;18.90;99.90;;;;;;4989623;28;20064;-71
2022/08/18 08:25:08;;;;;;;4.97;1.65;;;18.90;99.90;;;;;;4991704;28;20060;-71
2022/08/18 08:27:55;;;;;;;3.40;1.40;;;18.90;99.90;;;;;;4975298;28;20084;-71
2022/08/18 08:30:24;;;;;;;6.10;1.40;;;18.80;99.90;;;;;;4995213;28;20219;-72
2022/08/18 08:33:11;;;;;;;3.72;1.33;;;18.90;99.90;;;;;;4989359;28;20053;-71
2022/08/18 08:36:06;;;;;;;3.03;1.60;;;18.90;99.90;;;;;;4991379;28;20057;-71
2022/08/18 08:38:45;;;;;;;6.00;1.60;;;19.10;99.90;;;;;;4958188;28;20122;-71
2022/08/18 08:41:34;;;;;;;1.92;1.05;;;19.10;99.90;;;;;;4989325;28;20073;-71
2022/08/18 08:44:25;;;;;;;3.92;1.67;;;19.00;99.90;;;;;;4973344;28;20148;-71
2022/08/18 08:47:11;;;;;;;4.82;1.60;;;19.00;99.90;;;;;;4977697;28;20119;-71
2022/08/18 08:49:41;;;;;;;3.05;1.30;;;19.00;99.90;;;;;;4968850;28;20046;-72
2022/08/18 08:52:26;;;;;;;2.95;1.42;;;19.10;99.90;;;;;;4971444;28;20523;-71
2022/08/18 08:55:09;;;;;;;2.28;1.40;;;18.90;99.90;;;;;;4989902;28;20063;-70
2022/08/18 08:58:01;;;;;;;3.88;1.60;;;18.90;99.90;;;;;;4976574;28;20061;-71
2022/08/18 09:00:27;;;;;;;3.42;1.80;;;18.90;99.90;;;;;;4987925;28;20088;-71
2022/08/18 09:03:14;;;;;;;3.38;1.55;;;19.00;99.90;;;;;;4988630;28;20176;-71
2022/08/18 09:05:47;;;;;;;3.65;1.60;;;19.00;99.90;;;;;;4991879;28;20783;-72
2022/08/18 09:08:31;;;;;;;1.70;1.20;;;19.00;99.90;;;;;;4972876;28;20074;-72
2022/08/18 09:11:22;;;;;;;4.28;1.60;;;19.00;99.90;;;;;;4993745;28;20056;-72
2022/08/18 09:14:18;;;;;;;4.97;1.60;;;19.20;99.90;;;;;;4989059;28;20053;-72
2022/08/18 09:17:15;;;;;;;3.42;1.73;;;19.30;99.90;;;;;;4975992;28;20917;-72
2022/08/18 09:20:19;;;;;;;4.72;1.77;;;19.40;99.90;;;;;;4991186;28;20874;-72
2022/08/18 09:22:53;;;;;;;4.30;1.90;;;19.50;99.90;;;;;;4991129;28;20144;-72
2022/08/18 09:25:53;;;;;;;3.20;1.70;;;19.40;99.90;;;;;;4992399;28;20053;-72
2022/08/18 09:28:41;;;;;;;3.33;1.63;;;19.40;99.90;;;;;;4937675;28;20057;-72
2022/08/18 09:31:06;;;;;;;4.25;1.60;;;19.40;99.90;;;;;;4991035;28;20057;-71
2022/08/18 09:33:44;;;;;;;8.85;1.80;;;19.50;99.90;;;;;;4986635;28;20060;-72
2022/08/18 09:36:28;;;;;;;2.72;1.50;;;19.60;99.90;;;;;;4986330;28;20045;-72
2022/08/18 09:42:17;;;;;;;3.95;1.20;;;19.80;99.90;;;;;;4990822;28;20045;-72
2022/08/18 09:44:45;;;;;;;2.80;1.00;;;19.80;99.90;;;;;;4989965;28;20099;-71
2022/08/18 09:47:20;;;;;;;3.85;1.25;;;19.90;99.90;;;;;;4995131;28;20044;-71
2022/08/18 09:49:56;;;;;;;2.65;1.17;;;19.90;99.90;;;;;;5025928;28;20042;-71
2022/08/18 09:52:22;;;;;;;4.07;1.23;;;19.90;99.90;;;;;;5018056;28;20492;-71
2022/08/18 09:54:57;;;;;;;5.45;1.35;;;20.10;99.90;;;;;;5027353;28;20049;-72
2022/08/18 09:57:37;;;;;;;2.03;0.93;;;20.10;99.90;;;;;;5013021;28;20052;-70
2022/08/18 10:00:03;;;;;;;3.88;1.15;;;20.10;99.90;;;;;;5025930;28;20539;-71
2022/08/18 10:02:30;;;;;;;4.90;1.65;;;20.00;99.90;;;;;;5025208;28;20042;-71
2022/08/18 10:05:15;;;;;;;6.35;1.75;;;20.00;99.90;;;;;;5029896;28;20044;-71
2022/08/18 10:07:47;;;;;;;4.55;1.65;;;20.10;99.90;;;;;;5007079;28;20079;-71
2022/08/18 10:10:36;;;;;;;4.75;1.60;;;20.00;99.90;;;;;;5025330;28;20128;-71
2022/08/18 10:13:21;;;;;;;3.95;1.38;;;20.00;99.90;;;;;;5021353;28;20041;-71
2022/08/18 10:16:06;;;;;;;3.30;1.27;;;20.00;99.90;;;;;;5027482;28;20444;-71
2022/08/18 10:18:37;;;;;;;2.92;1.23;;;20.00;99.90;;;;;;5011073;28;20081;-71
2022/08/18 10:21:13;;;;;;;4.97;1.42;;;20.00;99.90;;;;;;5012245;28;20053;-71
2022/08/18 10:24:18;;;;;;;4.30;1.50;;;20.10;99.90;;;;;;5023281;28;20072;-71
2022/08/18 10:26:49;;;;;;;8.30;1.73;;;20.10;99.90;;;;;;5013185;28;20069;-71
2022/08/18 10:29:27;;;;;;;5.78;1.50;;;20.10;99.90;;;;;;5007686;28;20045;-71
2022/08/18 10:31:56;;;;;;;7.13;1.98;;;20.10;99.90;;;;;;5027168;28;20469;-71
2022/08/18 10:34:48;;;;;;;4.70;1.80;;;20.10;99.90;;;;;;5025146;28;20515;-72
2022/08/18 10:37:19;;;;;;;8.02;1.90;;;20.20;99.90;;;;;;5008849;28;20056;-71
2022/08/18 10:39:49;;;;;;;6.28;1.65;;;20.30;99.90;;;;;;5026371;28;20134;-71
2022/08/18 10:42:39;;;;;;;5.57;1.65;;;20.20;99.90;;;;;;5026289;28;20496;-70
2022/08/18 10:45:07;;;;;;;5.75;1.40;;;20.20;99.90;;;;;;5024680;28;20045;-71
2022/08/18 10:47:33;;;;;;;4.80;1.45;;;20.20;99.90;;;;;;5006530;28;20045;-70
2022/08/18 10:50:03;;;;;;;5.22;1.50;;;20.20;99.90;;;;;;5018382;28;20042;-70
2022/08/18 10:52:37;;;;;;;9.40;1.70;;;20.20;99.90;;;;;;5019392;28;20077;-71
2022/08/18 10:55:20;;;;;;;5.07;1.70;;;20.20;99.90;;;;;;5042685;28;20132;-71
2022/08/18 10:57:59;;;;;;;4.32;1.63;;;20.30;99.90;;;;;;5002731;28;20057;-70
2022/08/18 11:00:54;;;;;;;8.93;1.65;;;20.30;99.90;;;;;;5014645;28;20053;-71
2022/08/18 11:03:54;;;;;;;3.35;1.45;;;20.40;99.90;;;;;;5014795;28;20037;-71
2022/08/18 11:06:25;;;;;;;6.57;1.98;;;20.50;99.90;;;;;;5004926;28;20049;-72
2022/08/18 11:09:10;;;;;;;4.82;2.15;;;20.70;99.90;;;;;;5016155;28;20045;-71
2022/08/18 11:11:43;;;;;;;3.90;2.13;;;20.90;99.90;;;;;;5020053;28;20112;-71
2022/08/18 11:14:27;;;;;;;4.65;2.45;;;21.00;99.90;;;;;;5001870;28;20076;-71
2022/08/18 11:17:05;;;;;;;4.57;2.00;;;20.90;99.90;;;;;;5003139;28;20514;-71
2022/08/18 11:19:37;;;;;;;5.82;2.03;;;20.90;99.90;;;;;;5019862;28;20511;-71
2022/08/18 11:22:03;;;;;;;5.57;2.15;;;20.90;99.90;;;;;;5017147;28;20516;-71
2022/08/18 11:24:34;;;;;;;4.82;1.45;;;21.00;99.90;;;;;;5017601;28;20037;-71
2022/08/18 11:27:17;;;;;;;4.90;1.60;;;20.90;99.90;;;;;;5010006;28;20458;-71
2022/08/18 11:29:43;;;;;;;2.40;1.13;;;20.80;99.90;;;;;;5023842;28;20029;-71
2022/08/18 11:32:38;;;;;;;3.35;1.20;;;20.80;99.90;;;;;;5028116;28;20045;-70
2022/08/18 11:35:09;;;;;;;5.05;1.50;;;20.90;99.90;;;;;;5024267;28;20548;-71
2022/08/18 11:37:47;;;;;;;2.53;1.00;;;20.90;99.90;;;;;;5007905;28;20041;-70
2022/08/18 11:40:22;;;;;;;5.10;1.50;;;20.90;99.90;;;;;;5024465;28;20137;-71
2022/08/18 11:43:08;;;;;;;4.90;1.10;;;21.00;99.90;;;;;;5022032;28;20120;-71
2022/08/18 11:45:44;;;;;;;4.22;1.30;;;21.00;99.90;;;;;;5026111;28;20570;-71
2022/08/18 11:48:27;;;;;;;3.70;1.25;;;21.10;99.90;;;;;;5008013;28;20042;-71
2022/08/18 11:50:58;;;;;;;6.20;1.35;;;21.10;99.90;;;;;;5024809;28;20045;-71
2022/08/18 11:53:25;;;;;;;;;;;21.00;99.90;;;;;;5013341;28;20131;-71
2022/08/18 11:56:20;;;;;;;2.00;1.20;;;20.90;99.90;;;;;;5027569;28;19925;-71
2022/08/18 11:58:53;;;;;;;2.95;1.52;;;21.00;99.90;;;;;;5020082;28;20056;-71
2022/08/18 12:01:49;;;;;;;4.10;1.50;;;21.10;99.90;;;;;;5022920;28;20386;-71
2022/08/18 12:04:18;;;;;;;2.40;1.20;;;21.30;99.90;;;;;;5031742;28;20104;-71
2022/08/18 12:06:50;;;;;;;5.00;1.40;;;21.30;99.90;;;;;;5010409;28;20495;-71
2022/08/18 12:09:39;;;;;;;3.75;1.52;;;21.30;99.90;;;;;;5025430;28;20048;-71
2022/08/18 12:12:29;;;;;;;5.03;1.55;;;21.30;99.90;;;;;;5023094;28;20041;-69
2022/08/18 12:15:00;;;;;;;4.28;1.08;;;21.30;99.90;;;;;;5027689;28;20104;-70
2022/08/18 12:17:28;;;;;;;4.80;1.67;;;21.30;99.90;;;;;;5011490;28;20552;-70
2022/08/18 12:19:56;;;;;;;4.07;1.15;;;21.20;99.90;;;;;;5029740;28;20057;-70
2022/08/18 12:22:27;;;;;;;5.85;1.48;;;21.20;99.90;;;;;;5024317;28;20496;-71
2022/08/18 12:24:53;;;;;;;1.65;1.05;;;21.20;99.90;;;;;;5034362;28;20106;-70
2022/08/18 12:27:22;;;;;;;2.25;1.10;;;21.30;99.90;;;;;;5014758;28;20055;-70
2022/08/18 12:29:57;;;;;;;3.30;1.38;;;21.30;99.90;;;;;;5021922;28;20052;-71
2022/08/18 12:32:26;;;;;;;2.97;1.20;;;21.40;99.90;;;;;;5026182;28;20147;-70
2022/08/18 12:34:52;;;;;;;3.35;1.35;;;21.40;99.90;;;;;;5030050;28;20152;-70
2022/08/18 12:37:23;;;;;;;3.72;1.30;;;21.30;99.90;;;;;;5012799;28;20069;-70
2022/08/18 12:39:50;;;;;;;4.68;1.50;;;21.20;99.90;;;;;;5026219;28;20057;-70
2022/08/18 12:42:15;;;;;;;2.63;1.55;;;21.20;99.90;;;;;;5028657;28;20056;-70
2022/08/18 12:44:41;;;;;;;3.90;1.40;;;21.30;99.90;;;;;;5030687;28;20451;-71
2022/08/18 12:47:15;;;;;;;2.08;1.05;;;21.40;99.90;;;;;;5017056;28;20094;-70
2022/08/18 12:49:41;;;;;;;2.45;1.30;;;21.30;99.90;;;;;;5027093;28;20088;-70
2022/08/18 12:52:08;;;;;;;4.82;1.70;;;21.40;99.90;;;;;;5028530;28;20057;-69
2022/08/18 12:54:34;;;;;;;4.65;1.38;;;21.40;99.90;;;;;;5028085;28;20124;-71
2022/08/18 12:57:02;;;;;;;1.75;1.23;;;21.20;99.90;;;;;;5014352;28;20033;-71
2022/08/18 12:59:28;;;;;;;2.13;1.25;;;21.30;99.90;;;;;;5028774;28;20042;-71
2022/08/18 13:01:54;;;;;;;2.15;1.30;;;21.40;99.90;;;;;;5029470;28;20403;-70
2022/08/18 13:04:19;;;;;;;1.67;1.17;;;21.30;99.90;;;;;;5023073;28;20140;-70
2022/08/18 13:06:52;;;;;;;2.60;1.20;;;21.30;99.90;;;;;;5012052;28;20121;-72
2022/08/18 13:09:18;;;;;;;1.35;1.00;;;21.30;99.90;;;;;;5026551;28;20467;-70
2022/08/18 13:11:44;;;;;;;3.25;1.13;;;21.30;99.90;;;;;;5025707;28;20108;-71
2022/08/18 13:14:10;;;;;;;2.65;1.50;;;21.30;99.90;;;;;;5026927;28;20398;-71
2022/08/18 13:16:39;;;;;;;2.72;1.33;;;21.30;99.90;;;;;;5014106;28;21107;-70
2022/08/18 13:19:06;;;;;;;2.53;1.35;;;21.20;99.90;;;;;;5026478;28;20044;-70
2022/08/18 13:21:31;;;;;;;2.03;1.40;;;21.30;99.90;;;;;;5030418;28;20050;-70
2022/08/18 13:23:58;;;;;;;3.20;1.40;;;21.30;99.90;;;;;;5024218;28;20045;-71
2022/08/18 13:26:29;;;;;;;3.42;1.65;;;21.30;99.90;;;;;;5011290;28;20053;-71
2022/08/18 13:28:56;;;;;;;2.50;1.45;;;21.20;99.90;;;;;;5027523;28;20079;-70
2022/08/18 13:31:22;;;;;;;2.90;1.30;;;21.20;99.90;;;;;;5031689;28;20041;-70
2022/08/18 13:33:49;;;;;;;3.05;1.00;;;21.10;99.90;;;;;;5007112;28;20049;-71